sensor_id;sensor_type;location;lat;lon;timestamp;temperature;humidity
54938;DHT22;52756;52.826;6.214;2022-12-07T00:01:13;5.10;79.20
54938;DHT22;52756;52.826;6.214;2022-12-07T00:03:41;5.00;79.20
54938;DHT22;52756;52.826;6.214;2022-12-07T00:06:09;5.00;79.10
54938;DHT22;52756;52.826;6.214;2022-12-07T00:08:35;5.00;79.20
54938;DHT22;52756;52.826;6.214;2022-12-07T00:11:06;5.00;79.20
54938;DHT22;52756;52.826;6.214;2022-12-07T00:13:33;5.00;79.30
54938;DHT22;52756;52.826;6.214;2022-12-07T00:16:10;5.00;79.40
54938;DHT22;52756;52.826;6.214;2022-12-07T00:18:37;5.00;79.50
54938;DHT22;52756;52.826;6.214;2022-12-07T00:21:14;4.90;79.30
54938;DHT22;52756;52.826;6.214;2022-12-07T00:23:41;5.00;79.40
54938;DHT22;52756;52.826;6.214;2022-12-07T00:26:18;4.90;79.20
54938;DHT22;52756;52.826;6.214;2022-12-07T00:28:48;5.00;79.20
54938;DHT22;52756;52.826;6.214;2022-12-07T00:31:16;4.90;79.30
54938;DHT22;52756;52.826;6.214;2022-12-07T00:33:42;4.90;79.10
54938;DHT22;52756;52.826;6.214;2022-12-07T00:36:11;5.10;79.10
54938;DHT22;52756;52.826;6.214;2022-12-07T00:38:37;4.90;79.00
54938;DHT22;52756;52.826;6.214;2022-12-07T00:41:14;4.90;79.00
54938;DHT22;52756;52.826;6.214;2022-12-07T00:43:41;5.00;79.10
54938;DHT22;52756;52.826;6.214;2022-12-07T00:46:08;4.80;79.00
54938;DHT22;52756;52.826;6.214;2022-12-07T00:48:33;4.80;79.00
54938;DHT22;52756;52.826;6.214;2022-12-07T00:50:59;4.80;79.00
54938;DHT22;52756;52.826;6.214;2022-12-07T00:53:25;4.80;79.00
54938;DHT22;52756;52.826;6.214;2022-12-07T00:55:51;4.80;79.10
54938;DHT22;52756;52.826;6.214;2022-12-07T00:58:18;4.80;79.20
54938;DHT22;52756;52.826;6.214;2022-12-07T01:00:44;4.80;79.20
54938;DHT22;52756;52.826;6.214;2022-12-07T01:03:12;4.80;79.30
54938;DHT22;52756;52.826;6.214;2022-12-07T01:05:38;4.80;79.40
54938;DHT22;52756;52.826;6.214;2022-12-07T01:08:05;4.80;79.40
54938;DHT22;52756;52.826;6.214;2022-12-07T01:10:31;4.80;79.50
54938;DHT22;52756;52.826;6.214;2022-12-07T01:12:57;4.80;79.50
54938;DHT22;52756;52.826;6.214;2022-12-07T01:15:23;4.70;79.30
54938;DHT22;52756;52.826;6.214;2022-12-07T01:17:49;4.80;79.40
54938;DHT22;52756;52.826;6.214;2022-12-07T01:20:15;4.70;79.30
54938;DHT22;52756;52.826;6.214;2022-12-07T01:22:42;4.70;79.30
54938;DHT22;52756;52.826;6.214;2022-12-07T01:25:10;4.70;79.30
54938;DHT22;52756;52.826;6.214;2022-12-07T01:27:36;4.70;79.30
54938;DHT22;52756;52.826;6.214;2022-12-07T01:30:05;4.70;79.30
54938;DHT22;52756;52.826;6.214;2022-12-07T01:32:31;4.70;79.30
54938;DHT22;52756;52.826;6.214;2022-12-07T01:34:57;4.70;79.40
54938;DHT22;52756;52.826;6.214;2022-12-07T01:37:23;4.70;79.50
54938;DHT22;52756;52.826;6.214;2022-12-07T01:39:52;4.70;79.60
54938;DHT22;52756;52.826;6.214;2022-12-07T01:42:18;4.70;79.70
54938;DHT22;52756;52.826;6.214;2022-12-07T01:47:49;4.70;79.60
54938;DHT22;52756;52.826;6.214;2022-12-07T01:50:17;4.60;79.50
54938;DHT22;52756;52.826;6.214;2022-12-07T01:52:45;4.60;79.50
54938;DHT22;52756;52.826;6.214;2022-12-07T01:55:14;4.60;79.40
54938;DHT22;52756;52.826;6.214;2022-12-07T01:57:43;4.60;79.40
54938;DHT22;52756;52.826;6.214;2022-12-07T02:00:11;4.60;79.40
54938;DHT22;52756;52.826;6.214;2022-12-07T02:05:14;4.60;79.10
54938;DHT22;52756;52.826;6.214;2022-12-07T02:07:41;4.60;79.10
54938;DHT22;52756;52.826;6.214;2022-12-07T02:10:17;4.50;79.00
54938;DHT22;52756;52.826;6.214;2022-12-07T02:12:45;4.50;79.20
54938;DHT22;52756;52.826;6.214;2022-12-07T02:15:12;4.50;79.20
54938;DHT22;52756;52.826;6.214;2022-12-07T02:17:47;4.60;79.20
54938;DHT22;52756;52.826;6.214;2022-12-07T02:20:27;4.50;79.10
54938;DHT22;52756;52.826;6.214;2022-12-07T02:23:11;4.50;79.10
54938;DHT22;52756;52.826;6.214;2022-12-07T02:31:28;4.50;79.40
54938;DHT22;52756;52.826;6.214;2022-12-07T02:34:05;4.50;79.40
54938;DHT22;52756;52.826;6.214;2022-12-07T02:36:38;4.50;79.50
54938;DHT22;52756;52.826;6.214;2022-12-07T02:41:52;4.50;79.40
54938;DHT22;52756;52.826;6.214;2022-12-07T02:44:25;4.40;79.30
54938;DHT22;52756;52.826;6.214;2022-12-07T02:46:56;4.40;79.50
54938;DHT22;52756;52.826;6.214;2022-12-07T02:49:24;4.40;79.60
54938;DHT22;52756;52.826;6.214;2022-12-07T02:51:49;4.40;79.70
54938;DHT22;52756;52.826;6.214;2022-12-07T02:54:18;4.40;79.90
54938;DHT22;52756;52.826;6.214;2022-12-07T03:06:56;4.40;80.60
54938;DHT22;52756;52.826;6.214;2022-12-07T03:09:32;4.50;80.90
54938;DHT22;52756;52.826;6.214;2022-12-07T03:12:34;4.50;81.40
54938;DHT22;52756;52.826;6.214;2022-12-07T03:15:05;4.50;81.10
54938;DHT22;52756;52.826;6.214;2022-12-07T03:17:35;4.50;81.10
54938;DHT22;52756;52.826;6.214;2022-12-07T03:20:05;4.50;81.20
54938;DHT22;52756;52.826;6.214;2022-12-07T03:22:34;4.50;81.30
54938;DHT22;52756;52.826;6.214;2022-12-07T03:25:05;4.50;81.20
54938;DHT22;52756;52.826;6.214;2022-12-07T03:27:35;4.60;81.20
54938;DHT22;52756;52.826;6.214;2022-12-07T03:30:08;4.60;81.20
54938;DHT22;52756;52.826;6.214;2022-12-07T03:35:18;4.60;81.00
54938;DHT22;52756;52.826;6.214;2022-12-07T03:37:56;4.60;80.80
54938;DHT22;52756;52.826;6.214;2022-12-07T03:40:30;4.50;80.70
54938;DHT22;52756;52.826;6.214;2022-12-07T03:42:59;4.50;80.60
54938;DHT22;52756;52.826;6.214;2022-12-07T03:45:40;4.50;80.50
54938;DHT22;52756;52.826;6.214;2022-12-07T03:48:20;4.60;80.50
54938;DHT22;52756;52.826;6.214;2022-12-07T03:51:36;4.50;80.40
54938;DHT22;52756;52.826;6.214;2022-12-07T03:53:59;4.50;80.40
54938;DHT22;52756;52.826;6.214;2022-12-07T03:56:28;4.50;80.40
54938;DHT22;52756;52.826;6.214;2022-12-07T03:58:54;4.50;80.40
54938;DHT22;52756;52.826;6.214;2022-12-07T04:01:20;4.50;80.30
54938;DHT22;52756;52.826;6.214;2022-12-07T04:03:47;4.50;80.30
54938;DHT22;52756;52.826;6.214;2022-12-07T04:06:13;4.50;80.30
54938;DHT22;52756;52.826;6.214;2022-12-07T04:08:39;4.60;80.20
54938;DHT22;52756;52.826;6.214;2022-12-07T04:11:05;4.50;80.10
54938;DHT22;52756;52.826;6.214;2022-12-07T04:13:30;4.60;80.10
54938;DHT22;52756;52.826;6.214;2022-12-07T04:16:16;4.50;79.90
54938;DHT22;52756;52.826;6.214;2022-12-07T04:18:42;4.50;80.00
54938;DHT22;52756;52.826;6.214;2022-12-07T04:21:07;4.50;79.90
54938;DHT22;52756;52.826;6.214;2022-12-07T04:23:33;4.50;79.90
54938;DHT22;52756;52.826;6.214;2022-12-07T04:25:59;4.50;79.90
54938;DHT22;52756;52.826;6.214;2022-12-07T04:28:24;4.50;79.90
54938;DHT22;52756;52.826;6.214;2022-12-07T04:30:50;4.50;79.90
54938;DHT22;52756;52.826;6.214;2022-12-07T04:33:16;4.50;79.90
54938;DHT22;52756;52.826;6.214;2022-12-07T04:35:42;4.40;79.80
54938;DHT22;52756;52.826;6.214;2022-12-07T04:38:08;4.50;79.80
54938;DHT22;52756;52.826;6.214;2022-12-07T04:40:34;4.50;79.80
54938;DHT22;52756;52.826;6.214;2022-12-07T04:43:00;4.40;79.70
54938;DHT22;52756;52.826;6.214;2022-12-07T04:45:25;4.50;79.70
54938;DHT22;52756;52.826;6.214;2022-12-07T04:47:51;4.40;79.60
54938;DHT22;52756;52.826;6.214;2022-12-07T04:50:17;4.40;79.60
54938;DHT22;52756;52.826;6.214;2022-12-07T04:52:42;4.40;79.60
54938;DHT22;52756;52.826;6.214;2022-12-07T04:55:08;4.40;79.60
54938;DHT22;52756;52.826;6.214;2022-12-07T04:57:34;4.40;80.10
54938;DHT22;52756;52.826;6.214;2022-12-07T05:00:00;4.40;79.70
54938;DHT22;52756;52.826;6.214;2022-12-07T05:02:25;4.40;79.70
54938;DHT22;52756;52.826;6.214;2022-12-07T05:04:51;4.40;79.70
54938;DHT22;52756;52.826;6.214;2022-12-07T05:07:17;4.40;79.80
54938;DHT22;52756;52.826;6.214;2022-12-07T05:09:42;4.40;79.80
54938;DHT22;52756;52.826;6.214;2022-12-07T05:12:08;4.40;79.70
54938;DHT22;52756;52.826;6.214;2022-12-07T05:14:34;4.40;79.70
54938;DHT22;52756;52.826;6.214;2022-12-07T05:16:59;4.40;80.00
54938;DHT22;52756;52.826;6.214;2022-12-07T05:19:25;4.40;79.60
54938;DHT22;52756;52.826;6.214;2022-12-07T05:21:51;4.40;79.60
54938;DHT22;52756;52.826;6.214;2022-12-07T05:24:17;4.40;79.60
54938;DHT22;52756;52.826;6.214;2022-12-07T05:26:44;4.40;79.60
54938;DHT22;52756;52.826;6.214;2022-12-07T05:29:12;4.30;79.50
54938;DHT22;52756;52.826;6.214;2022-12-07T05:31:38;4.40;79.50
54938;DHT22;52756;52.826;6.214;2022-12-07T05:34:03;4.30;79.30
54938;DHT22;52756;52.826;6.214;2022-12-07T05:36:29;4.30;79.20
54938;DHT22;52756;52.826;6.214;2022-12-07T05:38:57;4.30;79.00
54938;DHT22;52756;52.826;6.214;2022-12-07T05:41:23;4.30;79.00
54938;DHT22;52756;52.826;6.214;2022-12-07T05:44:07;4.30;78.90
54938;DHT22;52756;52.826;6.214;2022-12-07T05:46:33;4.20;78.80
54938;DHT22;52756;52.826;6.214;2022-12-07T05:48:59;4.30;78.90
54938;DHT22;52756;52.826;6.214;2022-12-07T05:51:24;4.20;79.00
54938;DHT22;52756;52.826;6.214;2022-12-07T05:53:50;4.20;79.00
54938;DHT22;52756;52.826;6.214;2022-12-07T05:56:15;4.20;79.40
54938;DHT22;52756;52.826;6.214;2022-12-07T05:58:41;4.30;79.00
54938;DHT22;52756;52.826;6.214;2022-12-07T06:01:25;4.20;78.80
54938;DHT22;52756;52.826;6.214;2022-12-07T06:03:51;4.10;78.70
54938;DHT22;52756;52.826;6.214;2022-12-07T06:06:17;4.10;78.70
54938;DHT22;52756;52.826;6.214;2022-12-07T06:08:42;4.10;78.70
54938;DHT22;52756;52.826;6.214;2022-12-07T06:11:08;4.10;78.80
54938;DHT22;52756;52.826;6.214;2022-12-07T06:13:52;4.00;78.90
54938;DHT22;52756;52.826;6.214;2022-12-07T06:16:18;4.00;79.00
54938;DHT22;52756;52.826;6.214;2022-12-07T06:18:44;4.00;79.20
54938;DHT22;52756;52.826;6.214;2022-12-07T06:21:09;4.10;79.40
54938;DHT22;52756;52.826;6.214;2022-12-07T06:23:35;4.00;79.50
54938;DHT22;52756;52.826;6.214;2022-12-07T06:26:01;4.00;79.70
54938;DHT22;52756;52.826;6.214;2022-12-07T06:28:26;4.00;79.80
54938;DHT22;52756;52.826;6.214;2022-12-07T06:30:59;4.10;80.00
54938;DHT22;52756;52.826;6.214;2022-12-07T06:33:26;4.10;80.20
54938;DHT22;52756;52.826;6.214;2022-12-07T06:35:52;4.10;80.30
54938;DHT22;52756;52.826;6.214;2022-12-07T06:38:18;4.20;80.40
54938;DHT22;52756;52.826;6.214;2022-12-07T06:40:43;4.10;80.40
54938;DHT22;52756;52.826;6.214;2022-12-07T06:43:09;4.10;80.50
54938;DHT22;52756;52.826;6.214;2022-12-07T06:45:35;4.10;80.60
54938;DHT22;52756;52.826;6.214;2022-12-07T06:48:00;4.10;80.60
54938;DHT22;52756;52.826;6.214;2022-12-07T06:50:26;4.10;80.60
54938;DHT22;52756;52.826;6.214;2022-12-07T06:52:52;4.20;80.60
54938;DHT22;52756;52.826;6.214;2022-12-07T06:55:18;4.20;80.60
54938;DHT22;52756;52.826;6.214;2022-12-07T06:57:44;4.10;80.40
54938;DHT22;52756;52.826;6.214;2022-12-07T07:00:10;4.10;80.70
54938;DHT22;52756;52.826;6.214;2022-12-07T07:02:36;4.20;80.30
54938;DHT22;52756;52.826;6.214;2022-12-07T07:05:02;4.20;80.20
54938;DHT22;52756;52.826;6.214;2022-12-07T07:07:28;4.20;80.10
54938;DHT22;52756;52.826;6.214;2022-12-07T07:09:54;4.20;80.10
54938;DHT22;52756;52.826;6.214;2022-12-07T07:12:20;4.20;80.00
54938;DHT22;52756;52.826;6.214;2022-12-07T07:14:46;4.10;79.90
54938;DHT22;52756;52.826;6.214;2022-12-07T07:17:12;4.10;79.80
54938;DHT22;52756;52.826;6.214;2022-12-07T07:19:38;4.10;80.20
54938;DHT22;52756;52.826;6.214;2022-12-07T07:22:04;4.10;79.70
54938;DHT22;52756;52.826;6.214;2022-12-07T07:24:30;4.10;79.60
54938;DHT22;52756;52.826;6.214;2022-12-07T07:26:55;4.10;79.50
54938;DHT22;52756;52.826;6.214;2022-12-07T07:29:21;4.10;79.40
54938;DHT22;52756;52.826;6.214;2022-12-07T07:31:47;4.10;79.30
54938;DHT22;52756;52.826;6.214;2022-12-07T07:34:13;4.10;79.30
54938;DHT22;52756;52.826;6.214;2022-12-07T07:36:38;4.00;79.30
54938;DHT22;52756;52.826;6.214;2022-12-07T07:39:04;4.10;79.50
54938;DHT22;52756;52.826;6.214;2022-12-07T07:41:30;4.10;80.00
54938;DHT22;52756;52.826;6.214;2022-12-07T07:43:56;4.10;79.60
54938;DHT22;52756;52.826;6.214;2022-12-07T07:46:22;4.10;79.50
54938;DHT22;52756;52.826;6.214;2022-12-07T07:48:48;4.20;79.50
54938;DHT22;52756;52.826;6.214;2022-12-07T07:51:13;4.10;79.40
54938;DHT22;52756;52.826;6.214;2022-12-07T07:53:39;4.00;79.40
54938;DHT22;52756;52.826;6.214;2022-12-07T07:56:05;4.10;79.60
54938;DHT22;52756;52.826;6.214;2022-12-07T07:58:31;4.00;79.60
54938;DHT22;52756;52.826;6.214;2022-12-07T08:00:56;4.10;79.70
54938;DHT22;52756;52.826;6.214;2022-12-07T08:03:22;4.10;79.80
54938;DHT22;52756;52.826;6.214;2022-12-07T08:05:47;4.10;79.90
54938;DHT22;52756;52.826;6.214;2022-12-07T08:08:13;4.00;79.90
54938;DHT22;52756;52.826;6.214;2022-12-07T08:10:39;4.20;80.10
54938;DHT22;52756;52.826;6.214;2022-12-07T08:13:04;4.10;80.00
54938;DHT22;52756;52.826;6.214;2022-12-07T08:15:37;4.10;80.00
54938;DHT22;52756;52.826;6.214;2022-12-07T08:18:03;4.20;80.20
54938;DHT22;52756;52.826;6.214;2022-12-07T08:20:33;4.10;80.10
54938;DHT22;52756;52.826;6.214;2022-12-07T08:23:00;4.20;80.20
54938;DHT22;52756;52.826;6.214;2022-12-07T08:25:26;4.20;80.20
54938;DHT22;52756;52.826;6.214;2022-12-07T08:27:52;4.10;80.10
54938;DHT22;52756;52.826;6.214;2022-12-07T08:30:18;4.20;80.20
54938;DHT22;52756;52.826;6.214;2022-12-07T08:32:45;4.20;80.60
54938;DHT22;52756;52.826;6.214;2022-12-07T08:35:11;4.20;80.20
54938;DHT22;52756;52.826;6.214;2022-12-07T08:37:37;4.30;80.30
54938;DHT22;52756;52.826;6.214;2022-12-07T08:40:04;4.20;80.30
54938;DHT22;52756;52.826;6.214;2022-12-07T08:42:30;4.30;80.50
54938;DHT22;52756;52.826;6.214;2022-12-07T08:45:07;4.30;80.50
54938;DHT22;52756;52.826;6.214;2022-12-07T08:47:35;4.30;80.50
54938;DHT22;52756;52.826;6.214;2022-12-07T08:50:04;4.40;80.60
54938;DHT22;52756;52.826;6.214;2022-12-07T08:52:31;4.40;80.60
54938;DHT22;52756;52.826;6.214;2022-12-07T08:54:59;4.40;80.50
54938;DHT22;52756;52.826;6.214;2022-12-07T08:57:27;4.40;80.50
54938;DHT22;52756;52.826;6.214;2022-12-07T08:59:53;4.50;80.50
54938;DHT22;52756;52.826;6.214;2022-12-07T09:02:19;4.50;80.40
54938;DHT22;52756;52.826;6.214;2022-12-07T09:04:44;4.50;80.30
54938;DHT22;52756;52.826;6.214;2022-12-07T09:07:10;4.50;80.20
54938;DHT22;52756;52.826;6.214;2022-12-07T09:09:36;4.50;80.10
54938;DHT22;52756;52.826;6.214;2022-12-07T09:12:02;4.60;80.20
54938;DHT22;52756;52.826;6.214;2022-12-07T09:14:28;4.60;80.10
54938;DHT22;52756;52.826;6.214;2022-12-07T09:16:53;4.60;80.10
54938;DHT22;52756;52.826;6.214;2022-12-07T09:19:19;4.70;80.20
54938;DHT22;52756;52.826;6.214;2022-12-07T09:21:45;4.70;80.20
54938;DHT22;52756;52.826;6.214;2022-12-07T09:24:12;4.70;80.20
54938;DHT22;52756;52.826;6.214;2022-12-07T09:26:38;4.80;80.30
54938;DHT22;52756;52.826;6.214;2022-12-07T09:29:06;4.80;80.40
54938;DHT22;52756;52.826;6.214;2022-12-07T09:31:31;4.90;80.60
54938;DHT22;52756;52.826;6.214;2022-12-07T09:33:59;5.00;80.70
54938;DHT22;52756;52.826;6.214;2022-12-07T09:36:25;5.00;80.70
54938;DHT22;52756;52.826;6.214;2022-12-07T09:38:51;5.10;80.80
54938;DHT22;52756;52.826;6.214;2022-12-07T09:41:17;5.10;80.60
54938;DHT22;52756;52.826;6.214;2022-12-07T09:43:44;5.30;80.60
54938;DHT22;52756;52.826;6.214;2022-12-07T09:46:15;5.30;80.40
54938;DHT22;52756;52.826;6.214;2022-12-07T09:48:43;5.30;80.30
54938;DHT22;52756;52.826;6.214;2022-12-07T09:51:21;5.40;80.10
54938;DHT22;52756;52.826;6.214;2022-12-07T09:53:48;5.40;80.00
54938;DHT22;52756;52.826;6.214;2022-12-07T09:56:15;5.40;79.80
54938;DHT22;52756;52.826;6.214;2022-12-07T09:58:42;5.40;79.60
54938;DHT22;52756;52.826;6.214;2022-12-07T10:03:36;5.50;79.40
54938;DHT22;52756;52.826;6.214;2022-12-07T10:06:04;5.40;79.30
54938;DHT22;52756;52.826;6.214;2022-12-07T10:08:30;5.50;79.40
54938;DHT22;52756;52.826;6.214;2022-12-07T10:10:57;5.50;79.30
54938;DHT22;52756;52.826;6.214;2022-12-07T10:13:35;5.50;79.40
54938;DHT22;52756;52.826;6.214;2022-12-07T10:16:01;5.60;79.50
54938;DHT22;52756;52.826;6.214;2022-12-07T10:23:34;5.70;79.90
54938;DHT22;52756;52.826;6.214;2022-12-07T10:26:01;5.70;79.80
54938;DHT22;52756;52.826;6.214;2022-12-07T10:28:44;5.80;79.70
54938;DHT22;52756;52.826;6.214;2022-12-07T10:31:28;5.80;79.60
54938;DHT22;52756;52.826;6.214;2022-12-07T10:33:58;5.80;79.40
54938;DHT22;52756;52.826;6.214;2022-12-07T10:36:37;5.80;79.40
54938;DHT22;52756;52.826;6.214;2022-12-07T10:39:23;5.80;79.40
54938;DHT22;52756;52.826;6.214;2022-12-07T10:42:02;5.90;79.20
54938;DHT22;52756;52.826;6.214;2022-12-07T10:44:31;5.90;79.20
54938;DHT22;52756;52.826;6.214;2022-12-07T10:50:24;5.90;78.70
54938;DHT22;52756;52.826;6.214;2022-12-07T10:53:21;5.90;78.70
54938;DHT22;52756;52.826;6.214;2022-12-07T10:58:58;5.90;78.50
54938;DHT22;52756;52.826;6.214;2022-12-07T11:10:02;5.90;78.90
54938;DHT22;52756;52.826;6.214;2022-12-07T11:12:54;5.90;78.90
54938;DHT22;52756;52.826;6.214;2022-12-07T11:15:48;6.00;79.00
54938;DHT22;52756;52.826;6.214;2022-12-07T11:18:45;6.00;79.10
54938;DHT22;52756;52.826;6.214;2022-12-07T11:21:19;6.00;79.20
54938;DHT22;52756;52.826;6.214;2022-12-07T11:24:18;6.00;79.30
54938;DHT22;52756;52.826;6.214;2022-12-07T11:32:31;6.10;79.40
54938;DHT22;52756;52.826;6.214;2022-12-07T11:38:01;6.10;79.50
54938;DHT22;52756;52.826;6.214;2022-12-07T11:40:34;6.10;79.60
54938;DHT22;52756;52.826;6.214;2022-12-07T11:43:05;6.20;79.70
54938;DHT22;52756;52.826;6.214;2022-12-07T11:45:39;6.20;79.70
54938;DHT22;52756;52.826;6.214;2022-12-07T11:50:42;6.30;79.40
54938;DHT22;52756;52.826;6.214;2022-12-07T11:55:57;6.30;79.10
54938;DHT22;52756;52.826;6.214;2022-12-07T12:03:54;6.30;78.60
54938;DHT22;52756;52.826;6.214;2022-12-07T12:06:22;6.30;78.70
54938;DHT22;52756;52.826;6.214;2022-12-07T12:12:05;6.40;78.60
54938;DHT22;52756;52.826;6.214;2022-12-07T12:14:46;6.40;79.10
54938;DHT22;52756;52.826;6.214;2022-12-07T12:22:37;6.50;78.50
54938;DHT22;52756;52.826;6.214;2022-12-07T12:25:06;6.50;78.50
54938;DHT22;52756;52.826;6.214;2022-12-07T12:27:35;6.60;78.60
54938;DHT22;52756;52.826;6.214;2022-12-07T12:30:05;6.60;78.40
54938;DHT22;52756;52.826;6.214;2022-12-07T12:32:40;6.60;78.30
54938;DHT22;52756;52.826;6.214;2022-12-07T12:35:30;6.60;78.30
54938;DHT22;52756;52.826;6.214;2022-12-07T12:38:47;6.60;78.20
54938;DHT22;52756;52.826;6.214;2022-12-07T12:54:38;6.80;78.20
54938;DHT22;52756;52.826;6.214;2022-12-07T13:02:24;6.80;77.90
54938;DHT22;52756;52.826;6.214;2022-12-07T13:26:15;6.80;76.60
54938;DHT22;52756;52.826;6.214;2022-12-07T13:33:45;6.80;76.80
54938;DHT22;52756;52.826;6.214;2022-12-07T13:36:37;6.80;76.80
54938;DHT22;52756;52.826;6.214;2022-12-07T13:39:18;6.80;76.80
54938;DHT22;52756;52.826;6.214;2022-12-07T13:41:45;6.90;77.10
54938;DHT22;52756;52.826;6.214;2022-12-07T13:44:15;6.80;77.10
54938;DHT22;52756;52.826;6.214;2022-12-07T13:47:09;6.80;77.20
54938;DHT22;52756;52.826;6.214;2022-12-07T13:49:46;6.80;77.20
54938;DHT22;52756;52.826;6.214;2022-12-07T13:52:25;6.80;77.20
54938;DHT22;52756;52.826;6.214;2022-12-07T13:54:59;6.80;77.10
54938;DHT22;52756;52.826;6.214;2022-12-07T13:57:27;6.80;77.10
54938;DHT22;52756;52.826;6.214;2022-12-07T13:59:53;6.80;77.00
54938;DHT22;52756;52.826;6.214;2022-12-07T14:02:30;6.80;77.30
54938;DHT22;52756;52.826;6.214;2022-12-07T14:05:32;6.80;77.20
54938;DHT22;52756;52.826;6.214;2022-12-07T14:08:02;6.80;77.10
54938;DHT22;52756;52.826;6.214;2022-12-07T14:10:31;6.80;77.30
54938;DHT22;52756;52.826;6.214;2022-12-07T14:12:58;6.80;77.30
54938;DHT22;52756;52.826;6.214;2022-12-07T14:15:27;6.80;77.30
54938;DHT22;52756;52.826;6.214;2022-12-07T14:17:54;6.80;77.30
54938;DHT22;52756;52.826;6.214;2022-12-07T14:20:35;6.80;77.70
54938;DHT22;52756;52.826;6.214;2022-12-07T14:23:02;6.80;77.30
54938;DHT22;52756;52.826;6.214;2022-12-07T14:26:03;6.80;77.40
54938;DHT22;52756;52.826;6.214;2022-12-07T14:28:32;6.80;77.40
54938;DHT22;52756;52.826;6.214;2022-12-07T14:31:13;6.80;77.50
54938;DHT22;52756;52.826;6.214;2022-12-07T14:33:49;6.80;77.50
54938;DHT22;52756;52.826;6.214;2022-12-07T14:36:15;6.80;77.50
54938;DHT22;52756;52.826;6.214;2022-12-07T14:38:40;6.80;77.50
54938;DHT22;52756;52.826;6.214;2022-12-07T14:41:12;6.80;77.60
54938;DHT22;52756;52.826;6.214;2022-12-07T14:43:57;6.80;77.50
54938;DHT22;52756;52.826;6.214;2022-12-07T14:46:23;6.80;77.40
54938;DHT22;52756;52.826;6.214;2022-12-07T14:48:49;6.70;77.20
54938;DHT22;52756;52.826;6.214;2022-12-07T14:51:15;6.70;77.20
54938;DHT22;52756;52.826;6.214;2022-12-07T14:53:44;6.80;77.20
54938;DHT22;52756;52.826;6.214;2022-12-07T14:56:11;6.80;77.10
54938;DHT22;52756;52.826;6.214;2022-12-07T14:58:37;6.70;76.90
54938;DHT22;52756;52.826;6.214;2022-12-07T15:01:02;6.70;76.70
54938;DHT22;52756;52.826;6.214;2022-12-07T15:03:28;6.60;76.60
54938;DHT22;52756;52.826;6.214;2022-12-07T15:05:55;6.60;76.60
54938;DHT22;52756;52.826;6.214;2022-12-07T15:08:20;6.60;76.70
54938;DHT22;52756;52.826;6.214;2022-12-07T15:10:46;6.50;76.80
54938;DHT22;52756;52.826;6.214;2022-12-07T15:13:12;6.60;76.80
54938;DHT22;52756;52.826;6.214;2022-12-07T15:16:01;6.50;76.50
54938;DHT22;52756;52.826;6.214;2022-12-07T15:18:26;6.50;76.50
54938;DHT22;52756;52.826;6.214;2022-12-07T15:20:52;6.40;77.00
54938;DHT22;52756;52.826;6.214;2022-12-07T15:23:18;6.40;76.80
54938;DHT22;52756;52.826;6.214;2022-12-07T15:25:45;6.40;76.90
54938;DHT22;52756;52.826;6.214;2022-12-07T15:28:12;6.40;76.90
54938;DHT22;52756;52.826;6.214;2022-12-07T15:30:39;6.40;77.10
54938;DHT22;52756;52.826;6.214;2022-12-07T15:33:04;6.40;77.10
54938;DHT22;52756;52.826;6.214;2022-12-07T15:35:30;6.40;77.20
54938;DHT22;52756;52.826;6.214;2022-12-07T15:37:56;6.40;77.20
54938;DHT22;52756;52.826;6.214;2022-12-07T15:40:21;6.30;77.10
54938;DHT22;52756;52.826;6.214;2022-12-07T15:42:47;6.40;77.10
54938;DHT22;52756;52.826;6.214;2022-12-07T15:45:13;6.40;77.50
54938;DHT22;52756;52.826;6.214;2022-12-07T15:47:41;6.40;77.10
54938;DHT22;52756;52.826;6.214;2022-12-07T15:50:10;6.30;77.00
54938;DHT22;52756;52.826;6.214;2022-12-07T15:52:37;6.30;76.90
54938;DHT22;52756;52.826;6.214;2022-12-07T15:55:03;6.30;76.90
54938;DHT22;52756;52.826;6.214;2022-12-07T15:57:34;6.30;76.90
54938;DHT22;52756;52.826;6.214;2022-12-07T16:00:00;6.30;76.90
54938;DHT22;52756;52.826;6.214;2022-12-07T16:02:26;6.20;76.80
54938;DHT22;52756;52.826;6.214;2022-12-07T16:04:52;6.20;76.90
54938;DHT22;52756;52.826;6.214;2022-12-07T16:07:18;6.20;76.90
54938;DHT22;52756;52.826;6.214;2022-12-07T16:09:45;6.20;76.90
54938;DHT22;52756;52.826;6.214;2022-12-07T16:12:12;6.20;76.90
54938;DHT22;52756;52.826;6.214;2022-12-07T16:14:38;6.20;76.90
54938;DHT22;52756;52.826;6.214;2022-12-07T16:17:06;6.10;76.90
54938;DHT22;52756;52.826;6.214;2022-12-07T16:19:32;6.10;76.80
54938;DHT22;52756;52.826;6.214;2022-12-07T16:21:58;6.10;76.60
54938;DHT22;52756;52.826;6.214;2022-12-07T16:24:25;6.10;76.50
54938;DHT22;52756;52.826;6.214;2022-12-07T16:26:50;6.00;76.40
54938;DHT22;52756;52.826;6.214;2022-12-07T16:29:18;5.90;76.40
54938;DHT22;52756;52.826;6.214;2022-12-07T16:31:44;6.00;76.40
54938;DHT22;52756;52.826;6.214;2022-12-07T16:34:10;5.90;76.50
54938;DHT22;52756;52.826;6.214;2022-12-07T16:36:35;5.80;76.70
54938;DHT22;52756;52.826;6.214;2022-12-07T16:39:02;5.80;76.90
54938;DHT22;52756;52.826;6.214;2022-12-07T16:41:27;5.80;77.20
54938;DHT22;52756;52.826;6.214;2022-12-07T16:43:53;5.80;77.30
54938;DHT22;52756;52.826;6.214;2022-12-07T16:46:19;5.70;77.40
54938;DHT22;52756;52.826;6.214;2022-12-07T16:48:44;5.70;77.60
54938;DHT22;52756;52.826;6.214;2022-12-07T16:51:13;5.70;77.70
54938;DHT22;52756;52.826;6.214;2022-12-07T16:53:40;5.70;77.90
54938;DHT22;52756;52.826;6.214;2022-12-07T16:56:14;5.70;77.90
54938;DHT22;52756;52.826;6.214;2022-12-07T16:58:41;5.70;78.00
54938;DHT22;52756;52.826;6.214;2022-12-07T17:03:40;5.70;78.10
54938;DHT22;52756;52.826;6.214;2022-12-07T17:06:14;5.70;78.10
54938;DHT22;52756;52.826;6.214;2022-12-07T17:08:41;5.70;78.10
54938;DHT22;52756;52.826;6.214;2022-12-07T17:11:11;5.70;78.10
54938;DHT22;52756;52.826;6.214;2022-12-07T17:13:37;5.70;78.10
54938;DHT22;52756;52.826;6.214;2022-12-07T17:16:21;5.70;78.00
54938;DHT22;52756;52.826;6.214;2022-12-07T17:18:47;5.70;77.90
54938;DHT22;52756;52.826;6.214;2022-12-07T17:21:13;5.60;77.80
54938;DHT22;52756;52.826;6.214;2022-12-07T17:23:39;5.60;77.70
54938;DHT22;52756;52.826;6.214;2022-12-07T17:26:07;5.60;77.60
54938;DHT22;52756;52.826;6.214;2022-12-07T17:28:34;5.70;77.70
54938;DHT22;52756;52.826;6.214;2022-12-07T17:31:00;5.50;77.60
54938;DHT22;52756;52.826;6.214;2022-12-07T17:33:25;5.60;77.60
54938;DHT22;52756;52.826;6.214;2022-12-07T17:35:51;5.60;77.60
54938;DHT22;52756;52.826;6.214;2022-12-07T17:38:17;5.50;77.50
54938;DHT22;52756;52.826;6.214;2022-12-07T17:40:42;5.50;77.50
54938;DHT22;52756;52.826;6.214;2022-12-07T17:43:08;5.50;77.60
54938;DHT22;52756;52.826;6.214;2022-12-07T17:45:36;5.50;77.60
54938;DHT22;52756;52.826;6.214;2022-12-07T17:48:03;5.50;77.60
54938;DHT22;52756;52.826;6.214;2022-12-07T17:50:29;5.40;77.60
54938;DHT22;52756;52.826;6.214;2022-12-07T17:53:13;5.50;77.70
54938;DHT22;52756;52.826;6.214;2022-12-07T17:55:39;5.50;77.70
54938;DHT22;52756;52.826;6.214;2022-12-07T17:58:05;5.50;77.80
54938;DHT22;52756;52.826;6.214;2022-12-07T18:00:31;5.40;77.70
54938;DHT22;52756;52.826;6.214;2022-12-07T18:03:03;5.40;77.60